Elmers End, United Kingdom
Current Conditions -  °F | °C
As of 8:20 PM on Thursday 20 Nov 2014 (Local Time) from EGKB Reporting Station
Haze Haze  
Wind Chill: 40°   Ceiling: Unl
Heat Index: 45°   Visibility: 2.5mi
Dew Point: 41°   Wind: 8mph
Humidity: 87%   Direction: 80°E
Pressure: 30.21"   Gusts: NA
Location:  51.4°N, 0.08°W
Report Text: EGKB 202020Z 08007KT 4000 HZ NSC 07/05 Q1023
Loading
Personal Weather Stations






























Interactive Weather Map New forecast layout! Learn more

10-Day Weather Forecast

Advertisements
Track Severe Weather on mobile